Terminal Aerodrome Forecast
Issued by NWS Melbourne, FL

Current Version | Previous Version | Text Only | Print | Product List | Glossary On
Versions: 1 2 3 4 5 6 7 8 9 10 11 12 13 14 15 16
000
FTUS42 KMLB 022021 AAA
TAFVRB
TAF AMD
KVRB 022021Z 0220/0318 18012G18KT 3SM TSRA SCT020 BKN030CB OVC040
      TEMPO 0220/0221 1SM +TSRA BKN020CB OVC030
     FM022200 19012KT P6SM VCSH SCT030 OVC060
     FM030400 21007KT P6SM FEW035 BKN090 OVC200=

USA.gov is the U.S. government's official web portal to all federal, state and local government web resources and services.